Time;durP1;ratioP1;P1;durP2;ratioP2;P2;SDS_P1;SDS_P2;PMS_P1;PMS_P2;Temp;Humidity;BMP_temperature;BMP_pressure;BME280_temperature;BME280_humidity;BME280_pressure;Samples;Min_cycle;Max_cycle;Signal;HPM_P1;HPM_P2
2021/01/20 00:01:08;;;;;;;47.33;22.60;;;;;;;-14.45;49.30;101070.11;1744476;81;21711;-59
2021/01/20 00:03:37;;;;;;;36.83;19.70;;;;;;;-14.43;49.40;101076.48;1750945;81;21128;-58
2021/01/20 00:06:06;;;;;;;43.30;22.05;;;;;;;-14.41;49.50;101078.23;1750558;81;21136;-59
2021/01/20 00:08:33;;;;;;;37.42;21.60;;;;;;;-14.41;49.23;101077.39;1749113;81;21172;-59
2021/01/20 00:11:01;;;;;;;44.58;23.70;;;;;;;-14.47;49.29;101075.91;1730167;81;21147;-59
2021/01/20 00:13:28;;;;;;;49.98;25.77;;;;;;;-14.50;49.10;101065.31;1746882;81;21412;-59
2021/01/20 00:15:56;;;;;;;41.25;25.40;;;;;;;-14.51;48.97;101074.95;1740937;81;21151;-59
2021/01/20 00:18:24;;;;;;;47.23;25.23;;;;;;;-14.50;48.76;101074.58;1735721;81;21135;-58
2021/01/20 00:20:51;;;;;;;54.25;25.77;;;;;;;-14.50;48.82;101070.78;1740473;81;21175;-58
2021/01/20 00:23:19;;;;;;;48.17;23.22;;;;;;;-14.49;48.75;101069.95;1744784;81;21143;-58
2021/01/20 00:25:46;;;;;;;49.13;24.15;;;;;;;-14.50;48.68;101075.84;1722210;81;21607;-58
2021/01/20 00:28:13;;;;;;;42.45;22.80;;;;;;;-14.55;48.88;101071.04;1718706;81;21479;-58
2021/01/20 00:30:41;;;;;;;48.80;24.87;;;;;;;-14.63;49.15;101070.39;1750667;81;21231;-58
2021/01/20 00:33:09;;;;;;;55.35;26.70;;;;;;;-14.66;49.34;101065.64;1744270;81;21164;-58
2021/01/20 00:35:39;;;;;;;47.13;23.90;;;;;;;-14.68;49.40;101055.89;1754995;81;21156;-58
2021/01/20 00:38:06;;;;;;;52.03;25.27;;;;;;;-14.69;49.43;101060.48;1745552;81;21195;-58
2021/01/20 00:40:34;;;;;;;42.78;21.68;;;;;;;-14.72;49.37;101066.69;1729278;81;21171;-58
2021/01/20 00:43:01;;;;;;;50.03;25.97;;;;;;;-14.75;49.44;101066.61;1762403;81;21132;-58
2021/01/20 00:45:31;;;;;;;59.38;30.82;;;;;;;-14.78;49.47;101063.56;1747334;81;21617;-58
2021/01/20 00:47:58;;;;;;;56.08;30.05;;;;;;;-14.79;49.46;101057.66;1738958;81;21159;-58
2021/01/20 00:50:27;;;;;;;55.10;26.33;;;;;;;-14.78;49.28;101056.84;1757191;81;21263;-59
2021/01/20 00:52:56;;;;;;;54.03;28.17;;;;;;;-14.77;48.94;101062.36;1741741;81;21210;-58
2021/01/20 00:55:24;;;;;;;51.98;24.67;;;;;;;-14.83;48.94;101067.60;1760361;80;21554;-58
2021/01/20 00:57:52;;;;;;;60.25;29.18;;;;;;;-14.90;49.27;101064.01;1759191;80;21206;-58
2021/01/20 01:00:21;;;;;;;59.60;28.12;;;;;;;-14.92;49.31;101054.27;1734384;80;21222;-58
2021/01/20 01:02:51;;;;;;;52.55;27.13;;;;;;;-14.90;49.13;101058.95;1743525;80;21159;-58
2021/01/20 01:05:20;;;;;;;58.17;27.73;;;;;;;-14.89;48.98;101051.84;1748865;81;21182;-58
2021/01/20 01:07:52;;;;;;;49.33;26.55;;;;;;;-14.86;48.78;101049.44;1745928;81;21128;-58
2021/01/20 01:10:22;;;;;;;55.95;30.80;;;;;;;-14.87;48.71;101050.23;1749005;81;21206;-58
2021/01/20 01:13:16;;;;;;;48.25;23.55;;;;;;;-14.84;48.83;101051.59;1751660;78;22778;-57
2021/01/20 01:15:53;;;;;;;46.45;23.83;;;;;;;-14.87;49.09;101060.33;1833455;76;22274;-58
2021/01/20 01:18:21;;;;;;;43.52;19.70;;;;;;;-14.92;49.32;101059.31;1761444;79;21630;-58
2021/01/20 01:20:49;;;;;;;30.77;17.17;;;;;;;-14.86;49.44;101067.49;1790495;79;21625;-57
2021/01/20 01:23:17;;;;;;;61.80;22.22;;;;;;;-14.84;49.30;101064.61;1810042;79;21143;-57
2021/01/20 01:25:44;;;;;;;43.02;20.72;;;;;;;-14.85;49.33;101070.08;1804459;79;21159;-57
2021/01/20 01:28:16;;;;;;;49.42;24.95;;;;;;;-14.89;49.34;101073.31;1764048;79;21143;-59
2021/01/20 01:30:48;;;;;;;38.42;22.93;;;;;;;-14.93;49.39;101062.64;1767715;79;21187;-59
2021/01/20 01:33:16;;;;;;;43.08;20.70;;;;;;;-14.97;49.32;101065.88;1775237;79;21199;-59
2021/01/20 01:35:45;;;;;;;44.10;21.57;;;;;;;-14.93;49.15;101066.42;1799010;79;21136;-59
2021/01/20 01:38:14;;;;;;;50.60;22.65;;;;;;;-14.94;48.85;101063.46;1810763;79;21092;-58
2021/01/20 01:40:44;;;;;;;41.30;22.13;;;;;;;-15.00;48.85;101057.77;1768277;79;21527;-57
2021/01/20 01:43:46;;;;;;;41.88;21.73;;;;;;;-15.02;48.84;101055.61;1757986;79;21171;-58
2021/01/20 01:46:24;;;;;;;44.55;21.17;;;;;;;-15.02;48.74;101054.76;1861794;76;22620;-57
2021/01/20 01:48:54;;;;;;;46.70;21.35;;;;;;;-15.10;48.74;101054.48;1852456;75;21187;-58
2021/01/20 01:51:24;;;;;;;38.30;20.50;;;;;;;-15.12;48.94;101060.30;1856464;77;21260;-57
2021/01/20 01:54:14;;;;;;;27.15;15.08;;;;;;;-15.05;49.12;101063.48;1774128;79;22855;-57
2021/01/20 01:56:43;;;;;;;50.10;20.60;;;;;;;-15.13;49.08;101063.20;1741791;80;21125;-57
2021/01/20 01:59:13;;;;;;;38.85;15.98;;;;;;;-15.21;49.08;101065.48;1732923;80;21525;-58
2021/01/20 02:01:40;;;;;;;40.80;18.90;;;;;;;-15.24;49.12;101069.56;1755038;80;21220;-58
2021/01/20 02:04:10;;;;;;;35.83;17.17;;;;;;;-15.25;49.07;101072.47;1727442;80;21176;-59
2021/01/20 02:06:39;;;;;;;48.08;20.32;;;;;;;-15.30;49.16;101069.33;1757695;80;21124;-58
2021/01/20 02:09:26;;;;;;;65.28;35.90;;;;;;;-15.30;49.26;101067.66;1860237;76;29031;-57
2021/01/20 02:12:23;;;;;;;54.23;27.58;;;;;;;-15.20;48.95;101068.84;1739003;77;21168;-57
2021/01/20 02:15:16;;;;;;;42.98;20.75;;;;;;;-15.00;48.49;101068.29;1816058;77;21139;-57
2021/01/20 02:18:12;;;;;;;41.58;20.32;;;;;;;-15.02;48.32;101062.33;1825775;77;21164;-58
2021/01/20 02:21:10;;;;;;;37.28;19.65;;;;;;;-15.01;48.48;101064.03;1828306;77;28310;-59
2021/01/20 02:23:42;;;;;;;31.75;15.68;;;;;;;-15.01;48.47;101069.08;1820408;77;21167;-59
2021/01/20 02:27:00;;;;;;;41.92;18.92;;;;;;;-15.04;48.69;101063.95;1815908;76;22678;-58
2021/01/20 02:30:11;;;;;;;33.05;15.10;;;;;;;-15.06;48.59;101063.90;1779637;79;21152;-58
2021/01/20 02:32:54;;;;;;;41.58;21.70;;;;;;;-15.10;48.25;101061.20;1767639;79;21971;-58
2021/01/20 02:56:54;;;;;;;46.80;15.93;;;;;;;-15.88;49.31;101084.44;1899161;74;23035;-58
2021/01/20 02:59:24;;;;;;;45.15;20.82;;;;;;;-16.02;49.37;101078.88;1859394;76;21776;-59
2021/01/20 03:02:14;;;;;;;58.68;22.02;;;;;;;-15.99;49.47;101072.70;1787316;77;22782;-57
2021/01/20 03:04:44;;;;;;;40.23;20.12;;;;;;;-16.00;49.32;101080.67;1812732;78;21599;-57
2021/01/20 03:07:12;;;;;;;55.55;22.58;;;;;;;-15.96;49.40;101085.42;1783777;78;21355;-57
2021/01/20 03:09:39;;;;;;;33.98;14.63;;;;;;;-15.94;49.38;101077.10;1719544;80;21191;-58
2021/01/20 03:12:07;;;;;;;30.05;15.58;;;;;;;-15.87;49.37;101084.50;1773480;78;21171;-57
2021/01/20 03:14:35;;;;;;;44.05;20.88;;;;;;;-15.90;49.43;101087.78;1732411;80;21219;-57
2021/01/20 03:17:03;;;;;;;42.23;17.15;;;;;;;-15.87;49.46;101097.52;1760093;80;21147;-57
2021/01/20 03:19:31;;;;;;;46.77;19.90;;;;;;;-15.85;49.46;101095.91;1767242;78;21374;-57
2021/01/20 03:21:59;;;;;;;40.67;20.15;;;;;;;-15.86;49.44;101101.37;1769341;78;21116;-57
2021/01/20 03:24:27;;;;;;;44.53;16.87;;;;;;;-15.85;49.52;101094.65;1783027;78;21151;-57
2021/01/20 03:26:54;;;;;;;38.13;18.60;;;;;;;-15.82;49.51;101101.08;1733756;80;21744;-57
2021/01/20 03:29:21;;;;;;;40.75;19.02;;;;;;;-15.80;49.42;101102.88;1759086;78;21155;-58
2021/01/20 03:31:49;;;;;;;38.30;17.55;;;;;;;-15.81;49.43;101105.33;1750685;80;21974;-58
2021/01/20 03:34:16;;;;;;;37.50;18.17;;;;;;;-15.84;49.56;101106.06;1766785;78;21159;-57
2021/01/20 03:36:43;;;;;;;46.88;24.40;;;;;;;-15.84;49.74;101106.47;1728284;80;21197;-57
2021/01/20 03:39:10;;;;;;;46.08;20.70;;;;;;;-15.80;49.82;101100.73;1761700;80;21183;-58
2021/01/20 03:41:38;;;;;;;51.90;22.82;;;;;;;-15.75;49.72;101103.03;1764994;78;21229;-57
2021/01/20 03:44:06;;;;;;;33.98;17.02;;;;;;;-15.74;49.58;101103.47;1756911;81;21662;-59
2021/01/20 03:46:34;;;;;;;46.98;18.35;;;;;;;-15.72;49.53;101111.95;1781678;78;21159;-58
2021/01/20 03:49:02;;;;;;;60.17;25.23;;;;;;;-15.68;49.42;101107.49;1765232;79;21151;-59
2021/01/20 03:51:29;;;;;;;31.60;17.42;;;;;;;-15.60;49.26;101102.72;1759240;78;21127;-58
2021/01/20 03:54:00;;;;;;;44.77;18.62;;;;;;;-15.52;49.00;101100.94;1773467;78;21178;-58
2021/01/20 03:56:28;;;;;;;33.95;17.02;;;;;;;-15.51;48.74;101108.13;1770496;78;21209;-58
2021/01/20 03:58:55;;;;;;;45.35;20.10;;;;;;;-15.57;48.72;101107.47;1739467;78;21274;-58
2021/01/20 04:01:23;;;;;;;32.10;16.25;;;;;;;-15.59;48.53;101106.56;1763120;79;21171;-58
2021/01/20 04:03:50;;;;;;;41.13;20.37;;;;;;;-15.67;48.41;101109.20;1777510;80;21114;-59
2021/01/20 04:06:20;;;;;;;41.60;21.05;;;;;;;-15.80;48.61;101101.61;1769460;79;21160;-58
2021/01/20 04:08:49;;;;;;;50.28;21.35;;;;;;;-15.86;48.78;101100.11;1787636;79;21197;-59
2021/01/20 04:11:19;;;;;;;49.45;22.85;;;;;;;-15.84;48.83;101089.67;1758723;79;21186;-58
2021/01/20 04:13:47;;;;;;;50.33;23.70;;;;;;;-15.77;48.69;101088.24;1747306;79;21200;-59
2021/01/20 04:16:15;;;;;;;41.00;23.32;;;;;;;-15.77;48.70;101076.89;1738822;80;21164;-59
2021/01/20 04:18:43;;;;;;;41.50;20.68;;;;;;;-15.78;48.85;101086.13;1721721;80;21480;-60
2021/01/20 04:21:10;;;;;;;49.65;23.60;;;;;;;-15.79;49.08;101074.72;1748536;80;21203;-61
2021/01/20 04:23:39;;;;;;;30.95;15.63;;;;;;;-15.75;49.22;101075.28;1741578;79;21163;-59
2021/01/20 04:26:10;;;;;;;45.40;23.83;;;;;;;-15.66;49.36;101078.13;1729255;79;21231;-59
2021/01/20 04:28:37;;;;;;;50.55;21.37;;;;;;;-15.63;49.40;101070.69;1699249;80;21199;-58
2021/01/20 04:31:05;;;;;;;36.77;17.82;;;;;;;-15.62;49.29;101074.06;1745471;80;22438;-58
2021/01/20 04:33:34;;;;;;;47.70;22.82;;;;;;;-15.65;49.29;101077.31;1748495;79;22515;-58
2021/01/20 04:36:02;;;;;;;41.63;20.92;;;;;;;-15.68;49.36;101073.44;1725300;80;21188;-56
2021/01/20 04:38:30;;;;;;;38.58;21.45;;;;;;;-15.68;49.49;101073.44;1767506;79;21128;-59
2021/01/20 04:40:57;;;;;;;37.65;20.48;;;;;;;-15.69;49.44;101067.92;1754923;80;21183;-58
2021/01/20 04:43:25;;;;;;;34.73;16.62;;;;;;;-15.65;49.27;101071.00;1758824;79;21570;-59
2021/01/20 04:45:53;;;;;;;28.20;11.75;;;;;;;-15.58;49.26;101069.57;1749975;79;21159;-59
2021/01/20 04:48:31;;;;;;;42.48;18.77;;;;;;;-15.48;49.28;101069.52;1767047;79;21103;-59
2021/01/20 04:50:51;;;;;;;34.08;16.95;;;;;;;-15.50;49.12;101069.86;1762648;79;21171;-59
2021/01/20 04:53:19;;;;;;;43.87;20.15;;;;;;;-15.56;49.00;101078.93;1773555;79;21569;-59
2021/01/20 04:55:46;;;;;;;30.80;13.65;;;;;;;-15.67;49.10;101082.70;1754928;80;21223;-58
2021/01/20 04:58:18;;;;;;;43.13;17.70;;;;;;;-15.75;49.24;101084.11;1762568;79;22127;-58
2021/01/20 05:00:47;;;;;;;42.62;19.98;;;;;;;-15.81;49.38;101085.16;1759289;79;21681;-60
2021/01/20 05:03:14;;;;;;;34.67;17.40;;;;;;;-15.86;49.54;101087.91;1759863;79;21105;-60
2021/01/20 05:05:42;;;;;;;39.85;17.52;;;;;;;-15.83;49.60;101090.52;1756249;79;21180;-60
2021/01/20 05:08:10;;;;;;;41.45;20.82;;;;;;;-15.82;49.50;101098.55;1745295;79;21180;-60
2021/01/20 05:10:38;;;;;;;38.67;19.25;;;;;;;-15.87;49.62;101092.07;1749752;80;22193;-60
2021/01/20 05:13:22;;;;;;;31.65;16.42;;;;;;;-15.82;49.73;101094.77;1760177;79;21167;-59
2021/01/20 05:15:50;;;;;;;50.25;22.40;;;;;;;-15.79;49.77;101093.64;1731943;80;21171;-60
2021/01/20 05:18:19;;;;;;;40.15;19.60;;;;;;;-15.73;49.70;101096.38;1766380;79;21224;-60
2021/01/20 05:20:47;;;;;;;48.52;23.35;;;;;;;-15.66;49.44;101098.31;1751087;80;21188;-60
2021/01/20 05:23:15;;;;;;;37.08;18.12;;;;;;;-15.59;49.27;101100.26;1757093;79;21256;-60
2021/01/20 05:25:48;;;;;;;46.92;22.32;;;;;;;-15.54;49.22;101100.02;1752628;79;21199;-60
2021/01/20 05:28:23;;;;;;;47.75;21.80;;;;;;;-15.52;49.10;101111.03;1750878;80;21089;-60
2021/01/20 05:31:00;;;;;;;46.60;20.10;;;;;;;-15.55;49.05;101110.94;1754772;79;21167;-60
2021/01/20 05:33:39;;;;;;;45.43;20.90;;;;;;;-15.60;49.14;101112.44;1737341;80;21365;-59
2021/01/20 05:36:14;;;;;;;41.40;17.75;;;;;;;-15.62;49.21;101117.80;1747114;79;21131;-59
2021/01/20 05:38:46;;;;;;;42.00;21.67;;;;;;;-15.59;49.17;101124.64;1753894;79;21230;-59
2021/01/20 05:41:25;;;;;;;41.30;19.57;;;;;;;-15.63;49.05;101117.36;1753038;79;21626;-59
2021/01/20 05:44:15;;;;;;;59.50;25.45;;;;;;;-15.62;49.09;101122.84;1752340;80;21318;-59
2021/01/20 05:46:45;;;;;;;39.38;17.05;;;;;;;-15.60;49.05;101119.12;1759430;79;21203;-59
2021/01/20 05:49:27;;;;;;;34.13;18.55;;;;;;;-15.59;49.00;101124.22;1756506;79;21240;-59
2021/01/20 05:51:55;;;;;;;46.23;20.55;;;;;;;-15.55;49.00;101126.08;1752400;79;21199;-59
2021/01/20 05:54:36;;;;;;;53.00;23.00;;;;;;;-15.56;48.99;101136.11;1733825;80;21167;-58
2021/01/20 05:57:19;;;;;;;40.52;15.40;;;;;;;-15.60;49.01;101131.73;1750319;79;21508;-58
2021/01/20 05:59:52;;;;;;;42.67;18.20;;;;;;;-15.62;49.09;101137.12;1732591;80;21214;-60
2021/01/20 06:02:20;;;;;;;56.80;24.55;;;;;;;-15.66;49.18;101132.78;1754093;79;21506;-60
2021/01/20 06:04:48;;;;;;;49.45;25.85;;;;;;;-15.69;49.24;101140.22;1758090;79;21658;-60
2021/01/20 06:07:16;;;;;;;30.37;15.90;;;;;;;-15.74;49.24;101147.19;1725566;80;21215;-60
2021/01/20 06:09:45;;;;;;;34.53;18.05;;;;;;;-15.78;49.33;101135.72;1757926;79;21179;-60
2021/01/20 06:12:14;;;;;;;55.45;22.20;;;;;;;-15.80;49.56;101138.56;1758202;79;21235;-60
2021/01/20 06:14:44;;;;;;;47.73;22.10;;;;;;;-15.76;49.70;101135.37;1763177;79;21136;-60
2021/01/20 06:17:16;;;;;;;46.50;22.77;;;;;;;-15.72;49.55;101131.71;1759776;79;21139;-60
2021/01/20 06:19:47;;;;;;;49.08;26.33;;;;;;;-15.64;49.52;101135.80;1737422;80;21197;-60
2021/01/20 06:22:18;;;;;;;56.92;25.37;;;;;;;-15.53;49.37;101143.77;1732936;80;21147;-60
2021/01/20 06:24:48;;;;;;;50.95;25.97;;;;;;;-15.43;49.45;101137.03;1760108;79;21124;-60
2021/01/20 06:27:42;;;;;;;49.83;22.40;;;;;;;-15.35;49.43;101136.89;1759325;79;21244;-60
2021/01/20 06:30:26;;;;;;;57.20;29.60;;;;;;;-15.24;49.45;101137.30;1734924;79;21642;-60
2021/01/20 06:32:55;;;;;;;70.57;28.92;;;;;;;-15.15;49.50;101128.79;1729429;79;21103;-61
2021/01/20 06:35:26;;;;;;;54.88;28.70;;;;;;;-15.03;49.54;101125.84;1735789;80;21115;-60
2021/01/20 06:37:54;;;;;;;55.80;28.07;;;;;;;-14.92;49.58;101127.92;1717059;79;21191;-60
2021/01/20 06:40:29;;;;;;;49.77;27.22;;;;;;;-14.82;49.85;101138.80;1760965;79;21202;-58
2021/01/20 06:42:58;;;;;;;52.73;25.97;;;;;;;-14.70;50.02;101137.95;1757738;79;21203;-60
2021/01/20 06:45:26;;;;;;;54.65;27.45;;;;;;;-14.54;50.06;101143.09;1758147;79;21132;-59
2021/01/20 06:48:03;;;;;;;40.03;21.95;;;;;;;-14.40;50.05;101146.95;1758364;79;21186;-60
2021/01/20 06:50:34;;;;;;;49.77;26.97;;;;;;;-14.25;50.19;101143.23;1760994;79;21111;-60
2021/01/20 06:53:06;;;;;;;45.60;21.93;;;;;;;-14.13;50.37;101147.41;1737898;79;21155;-60
2021/01/20 06:55:38;;;;;;;59.08;28.47;;;;;;;-14.05;50.45;101148.53;1760249;79;21218;-60
2021/01/20 07:01:06;;;;;;;58.90;26.77;;;;;;;-13.91;50.58;101145.58;1697877;83;21219;-59
2021/01/20 07:03:47;;;;;;;46.20;24.05;;;;;;;-13.84;50.95;101155.08;1696687;83;21230;-59
2021/01/20 07:06:39;;;;;;;58.48;24.20;;;;;;;-13.82;51.16;101155.98;1674838;83;21260;-58
2021/01/20 07:09:09;;;;;;;46.92;23.67;;;;;;;-13.80;51.37;101154.77;1679851;83;21243;-60
2021/01/20 07:12:05;;;;;;;54.48;24.32;;;;;;;-13.78;51.64;101160.72;1698771;83;21558;-60
2021/01/20 07:14:33;;;;;;;38.45;19.90;;;;;;;-13.73;51.82;101157.55;1694553;83;21168;-60
2021/01/20 07:17:01;;;;;;;47.98;21.05;;;;;;;-13.67;52.39;101157.72;1698309;82;21239;-60
2021/01/20 07:19:30;;;;;;;32.50;19.25;;;;;;;-13.57;52.74;101163.08;1679419;83;21239;-60
2021/01/20 07:21:57;;;;;;;41.00;21.25;;;;;;;-13.49;52.89;101159.96;1698854;83;21221;-61
2021/01/20 07:24:24;;;;;;;42.40;20.37;;;;;;;-13.35;53.18;101156.57;1651112;83;21215;-60
2021/01/20 07:26:54;;;;;;;33.65;17.50;;;;;;;-13.18;53.17;101162.52;1699838;83;21245;-61
2021/01/20 07:29:24;;;;;;;32.93;17.87;;;;;;;-13.02;53.16;101158.34;1698620;83;21191;-60
2021/01/20 07:31:52;;;;;;;47.05;23.32;;;;;;;-12.85;53.14;101163.03;1674035;83;21597;-61
2021/01/20 07:34:20;;;;;;;42.90;21.60;;;;;;;-12.75;53.17;101167.54;1696377;82;21158;-59
2021/01/20 07:36:48;;;;;;;33.63;18.85;;;;;;;-12.60;53.07;101178.51;1701893;82;21690;-59
2021/01/20 07:39:22;;;;;;;45.52;20.75;;;;;;;-12.47;53.08;101170.80;1699186;82;21537;-59
2021/01/20 07:41:57;;;;;;;39.13;21.33;;;;;;;-12.37;52.89;101172.37;1699960;82;21238;-59
2021/01/20 07:44:25;;;;;;;49.40;23.35;;;;;;;-12.25;53.04;101174.36;1703381;82;23167;-60
2021/01/20 07:47:07;;;;;;;45.73;21.70;;;;;;;-12.11;53.17;101175.98;1678667;83;21250;-60
2021/01/20 07:49:36;;;;;;;38.85;22.52;;;;;;;-12.01;53.14;101177.92;1700084;83;22388;-60
2021/01/20 07:52:08;;;;;;;33.00;18.75;;;;;;;-11.87;53.11;101181.18;1688956;83;21492;-60
2021/01/20 07:54:40;;;;;;;39.83;20.27;;;;;;;-11.72;52.93;101180.69;1678938;83;21139;-61
2021/01/20 07:57:11;;;;;;;38.78;22.22;;;;;;;-11.62;52.74;101180.93;1698883;82;21148;-63
2021/01/20 07:59:44;;;;;;;32.30;19.07;;;;;;;-11.51;52.72;101177.38;1692901;82;21427;-60
2021/01/20 08:02:15;;;;;;;40.83;20.35;;;;;;;-11.36;52.56;101176.00;1685824;83;21220;-62
2021/01/20 08:04:42;;;;;;;46.42;23.55;;;;;;;-11.28;52.42;101180.84;1668568;84;21290;-63
2021/01/20 08:07:10;;;;;;;37.95;20.85;;;;;;;-11.13;52.51;101179.89;1647776;84;21208;-61
2021/01/20 08:09:45;;;;;;;35.25;21.20;;;;;;;-10.97;52.52;101184.06;1665615;84;21356;-59
2021/01/20 08:12:16;;;;;;;40.75;21.80;;;;;;;-10.85;52.34;101181.75;1666942;84;22182;-59
2021/01/20 08:14:44;;;;;;;32.42;20.30;;;;;;;-10.76;52.32;101178.53;1686987;84;21835;-61
2021/01/20 08:17:14;;;;;;;40.23;21.42;;;;;;;-10.70;52.26;101184.60;1687069;84;21220;-61
2021/01/20 08:19:42;;;;;;;40.73;19.57;;;;;;;-10.65;52.16;101184.27;1627052;86;21231;-63
2021/01/20 08:22:13;;;;;;;40.67;21.15;;;;;;;-10.57;52.27;101182.28;1687432;83;21224;-61
2021/01/20 08:24:47;;;;;;;40.12;20.50;;;;;;;-10.49;52.40;101186.72;1687420;84;21225;-61
2021/01/20 08:27:15;;;;;;;41.48;21.80;;;;;;;-10.41;52.10;101191.08;1685482;84;21157;-60
2021/01/20 08:29:52;;;;;;;38.48;20.27;;;;;;;-10.36;52.25;101193.30;1686343;84;21180;-63
2021/01/20 08:32:19;;;;;;;42.00;18.07;;;;;;;-10.29;52.10;101192.14;1687053;84;21127;-60
2021/01/20 08:34:49;;;;;;;33.67;18.50;;;;;;;-10.17;52.16;101188.08;1668628;84;21196;-61
2021/01/20 08:37:36;;;;;;;34.00;19.05;;;;;;;-10.11;52.14;101181.41;1668596;84;21231;-65
2021/01/20 08:40:07;;;;;;;38.28;19.95;;;;;;;-10.05;52.37;101183.23;1686893;84;21216;-63
2021/01/20 08:42:39;;;;;;;43.83;20.12;;;;;;;-9.95;52.33;101176.19;1647498;86;21639;-61
2021/01/20 08:45:23;;;;;;;34.00;17.55;;;;;;;-9.81;52.09;101180.64;1687265;84;21197;-60
2021/01/20 09:01:55;;;;;;;35.85;19.73;;;;;;;-7.70;49.01;101160.98;1875626;75;22763;-62
2021/01/20 09:04:23;;;;;;;34.45;18.55;;;;;;;-7.60;48.29;101163.16;1810702;77;21550;-61
2021/01/20 09:06:52;;;;;;;39.40;19.40;;;;;;;-7.65;48.58;101163.55;1841475;77;21185;-63
2021/01/20 09:09:20;;;;;;;27.20;16.60;;;;;;;-7.70;48.63;101166.50;1756061;79;21199;-60
2021/01/20 09:11:49;;;;;;;30.70;16.95;;;;;;;-7.75;48.51;101157.55;1792913;78;21202;-61
2021/01/20 09:14:17;;;;;;;32.93;17.37;;;;;;;-7.82;48.49;101156.20;1771701;80;21596;-61
2021/01/20 09:16:46;;;;;;;27.27;15.32;;;;;;;-7.86;48.88;101155.32;1785825;79;21134;-64
2021/01/20 09:19:14;;;;;;;32.15;18.37;;;;;;;-7.85;48.88;101158.29;1784309;78;21691;-65
2021/01/20 09:21:43;;;;;;;24.20;14.03;;;;;;;-7.82;49.31;101155.77;1776358;78;21128;-62
2021/01/20 09:24:11;;;;;;;25.92;12.43;;;;;;;-7.72;49.06;101157.97;1801575;78;21192;-64
2021/01/20 09:26:43;;;;;;;30.17;16.32;;;;;;;-7.68;48.83;101163.13;1770109;79;21172;-63
2021/01/20 09:29:12;;;;;;;20.95;12.00;;;;;;;-7.66;48.71;101158.03;1781907;80;21588;-63
2021/01/20 09:31:40;;;;;;;25.80;14.55;;;;;;;-7.66;48.58;101158.03;1800262;77;21372;-63
2021/01/20 09:34:09;;;;;;;24.63;13.90;;;;;;;-7.68;48.35;101153.34;1759797;80;21655;-63
2021/01/20 09:36:37;;;;;;;22.00;10.75;;;;;;;-7.77;48.32;101152.82;1806331;78;21170;-62
2021/01/20 09:39:05;;;;;;;20.88;10.60;;;;;;;-7.87;48.50;101151.05;1809444;78;21139;-61
2021/01/20 09:41:33;;;;;;;26.37;12.03;;;;;;;-7.91;48.63;101158.27;1747797;80;21541;-61
2021/01/20 09:44:02;;;;;;;20.50;13.00;;;;;;;-7.93;48.74;101151.02;1785747;79;21780;-63
2021/01/20 09:46:29;;;;;;;22.13;10.40;;;;;;;-7.93;48.65;101149.73;1753522;80;21219;-63
2021/01/20 09:48:58;;;;;;;20.32;10.23;;;;;;;-7.87;48.74;101151.05;1786137;79;21155;-63
2021/01/20 09:51:29;;;;;;;19.45;11.35;;;;;;;-7.79;48.47;101151.11;1780521;78;21188;-62
2021/01/20 09:53:58;;;;;;;27.07;12.50;;;;;;;-7.76;48.46;101149.44;1769019;80;21188;-62
2021/01/20 09:56:26;;;;;;;21.60;10.78;;;;;;;-7.68;48.47;101141.84;1786381;79;21382;-62
2021/01/20 09:58:54;;;;;;;21.45;11.70;;;;;;;-7.59;48.31;101143.59;1787779;78;21147;-62
2021/01/20 10:01:23;;;;;;;24.70;11.33;;;;;;;-7.54;48.25;101134.25;1807795;78;21187;-61
2021/01/20 10:03:51;;;;;;;25.45;11.43;;;;;;;-7.47;48.14;101135.99;1759602;78;21187;-64
2021/01/20 10:06:20;;;;;;;20.85;11.38;;;;;;;-7.39;48.04;101134.77;1728810;81;21462;-61
2021/01/20 10:08:48;;;;;;;17.17;9.10;;;;;;;-7.31;47.97;101130.12;1720132;81;21168;-64
2021/01/20 10:11:18;;;;;;;19.27;10.58;;;;;;;-7.24;47.34;101134.01;1762958;79;21150;-63
2021/01/20 10:13:45;;;;;;;19.90;9.45;;;;;;;-7.30;47.30;101133.09;1759925;79;21702;-62
2021/01/20 10:16:13;;;;;;;19.25;9.20;;;;;;;-7.31;47.26;101130.56;1767146;79;21155;-63
2021/01/20 10:18:42;;;;;;;38.83;11.43;;;;;;;-7.29;47.67;101125.88;1760935;80;21588;-61
2021/01/20 10:21:10;;;;;;;17.98;10.53;;;;;;;-7.16;47.76;101131.03;1756292;79;21191;-63
2021/01/20 10:23:39;;;;;;;16.67;9.30;;;;;;;-7.02;47.51;101128.13;1765850;79;21152;-65
2021/01/20 10:26:07;;;;;;;22.62;9.85;;;;;;;-6.92;47.19;101122.20;1762011;79;21450;-64
2021/01/20 10:28:35;;;;;;;23.87;10.93;;;;;;;-6.88;46.82;101119.22;1756161;79;21819;-67
2021/01/20 10:31:03;;;;;;;20.20;9.43;;;;;;;-6.86;46.66;101117.95;1754025;79;21185;-68
2021/01/20 10:33:30;;;;;;;22.73;9.58;;;;;;;-6.84;46.74;101127.76;1723972;81;21218;-63
2021/01/20 10:35:58;;;;;;;23.55;12.45;;;;;;;-6.75;46.93;101116.28;1743181;81;21220;-63
2021/01/20 10:38:27;;;;;;;21.80;10.15;;;;;;;-6.60;46.91;101108.64;1736198;81;21151;-64
2021/01/20 10:40:55;;;;;;;17.23;9.65;;;;;;;-6.46;46.16;101109.94;1797342;79;21172;-62
2021/01/20 10:43:23;;;;;;;22.25;10.35;;;;;;;-6.37;46.39;101109.97;1770566;79;21152;-63
2021/01/20 10:45:51;;;;;;;15.65;9.00;;;;;;;-6.23;45.80;101115.09;1770920;77;21186;-64
2021/01/20 10:48:20;;;;;;;21.12;8.83;;;;;;;-6.16;45.67;101105.27;1790681;77;21191;-65
2021/01/20 10:50:49;;;;;;;18.02;8.58;;;;;;;-6.07;45.49;101110.85;1800611;79;21552;-65
2021/01/20 10:53:16;;;;;;;18.23;9.60;;;;;;;-6.00;45.11;101101.02;1786249;79;21210;-64
2021/01/20 10:55:44;;;;;;;20.77;10.78;;;;;;;-5.95;45.20;101094.99;1797400;77;21565;-63
2021/01/20 10:58:13;;;;;;;17.35;9.03;;;;;;;-5.93;44.95;101094.15;1721540;78;21226;-64
2021/01/20 11:00:40;;;;;;;19.12;8.73;;;;;;;-5.94;44.61;101097.99;1792241;78;21161;-64
2021/01/20 11:03:09;;;;;;;29.35;11.48;;;;;;;-5.95;44.66;101100.99;1788402;79;21176;-64
2021/01/20 11:05:37;;;;;;;21.07;10.15;;;;;;;-5.98;44.58;101106.15;1801077;79;21132;-65
2021/01/20 11:08:05;;;;;;;13.58;8.85;;;;;;;-5.99;44.82;101101.42;1746513;80;21623;-66
2021/01/20 11:10:37;;;;;;;21.35;10.50;;;;;;;-5.93;44.08;101098.40;1778721;79;21115;-67
2021/01/20 11:13:09;;;;;;;16.82;9.05;;;;;;;-5.94;44.46;101101.84;1807657;77;21147;-67
2021/01/20 11:15:38;;;;;;;19.77;11.22;;;;;;;-5.90;44.36;101100.56;1808012;78;21191;-65
2021/01/20 11:18:06;;;;;;;21.15;10.08;;;;;;;-5.87;44.17;101099.69;1812209;78;21216;-66
2021/01/20 11:20:35;;;;;;;21.27;11.43;;;;;;;-5.88;43.92;101089.88;1781415;78;21179;-66
2021/01/20 11:23:03;;;;;;;19.17;10.43;;;;;;;-5.88;44.13;101090.31;1746625;78;21200;-66
2021/01/20 11:25:32;;;;;;;23.32;10.90;;;;;;;-5.82;44.43;101091.56;1780226;78;21170;-64
2021/01/20 11:28:00;;;;;;;21.05;10.50;;;;;;;-5.72;44.42;101092.41;1807736;77;21203;-64
2021/01/20 11:30:28;;;;;;;20.15;10.35;;;;;;;-5.62;43.91;101080.84;1745915;80;21162;-63
2021/01/20 11:32:56;;;;;;;18.85;9.90;;;;;;;-5.60;43.62;101085.97;1753163;80;21211;-65
2021/01/20 11:35:24;;;;;;;20.57;12.58;;;;;;;-5.57;43.71;101080.84;1752475;78;21225;-68
2021/01/20 11:37:56;;;;;;;21.23;10.95;;;;;;;-5.55;43.58;101086.81;1788684;78;21227;-66
2021/01/20 11:40:27;;;;;;;19.30;11.63;;;;;;;-5.47;43.21;101092.77;1769919;79;21179;-64
2021/01/20 11:42:58;;;;;;;17.65;8.53;;;;;;;-5.45;43.13;101099.19;1772244;79;21119;-62
2021/01/20 11:45:28;;;;;;;22.40;11.43;;;;;;;-5.42;43.11;101092.33;1774065;79;21185;-61
2021/01/20 11:47:57;;;;;;;19.67;11.20;;;;;;;-5.35;43.25;101089.32;1792281;78;21428;-64
2021/01/20 11:50:26;;;;;;;18.02;9.90;;;;;;;-5.29;42.61;101080.77;1759006;80;21543;-65
2021/01/20 11:52:55;;;;;;;19.07;10.30;;;;;;;-5.18;42.36;101085.41;1799310;78;21402;-65
2021/01/20 11:55:25;;;;;;;17.90;10.82;;;;;;;-4.91;41.85;101083.17;1774556;78;21642;-64
2021/01/20 11:57:55;;;;;;;20.10;10.95;;;;;;;-4.74;41.58;101087.34;1774947;80;21565;-63
2021/01/20 12:00:24;;;;;;;23.55;12.05;;;;;;;-4.18;40.64;101080.14;1786757;79;21276;-63